Time;durP1;ratioP1;P1;durP2;ratioP2;P2;SDS_P1;SDS_P2;PMS_P1;PMS_P2;Temp;Humidity;BMP_temperature;BMP_pressure;BME280_temperature;BME280_humidity;BME280_pressure;Samples;Min_cycle;Max_cycle;Signal;HPM_P1;HPM_P2
2022/04/09 00:00:43;;;;;;;2.73;0.53;;;;;;;10.64;61.57;92406.84;4952288;28;20201;-65
2022/04/09 00:03:29;;;;;;;1.00;0.50;;;;;;;10.69;61.64;92413.50;4967436;28;20648;-64
2022/04/09 00:06:15;;;;;;;1.10;0.60;;;;;;;10.72;61.36;92418.66;4949403;28;20272;-65
2022/04/09 00:09:01;;;;;;;2.27;0.50;;;;;;;10.85;60.85;92421.44;4972040;28;20639;-65
2022/04/09 00:11:48;;;;;;;0.30;0.30;;;;;;;10.98;60.10;92450.78;4964325;28;20388;-65
2022/04/09 00:14:34;;;;;;;0.77;0.40;;;;;;;11.14;59.22;92421.75;4972539;28;20197;-65
2022/04/09 00:17:20;;;;;;;0.87;0.40;;;;;;;11.21;59.81;92441.03;4944117;28;20193;-65
2022/04/09 00:20:07;;;;;;;2.47;0.53;;;;;;;11.22;60.19;92450.69;4954265;28;20684;-65
2022/04/09 00:22:53;;;;;;;4.63;0.60;;;;;;;11.27;61.63;92438.91;4972079;28;20642;-65
2022/04/09 00:25:42;;;;;;;1.07;0.60;;;;;;;11.18;63.26;92444.78;4957695;28;20200;-65
2022/04/09 00:28:28;;;;;;;1.03;0.57;;;;;;;11.14;63.75;92468.19;4968452;28;20283;-63
2022/04/09 00:31:14;;;;;;;0.87;0.50;;;;;;;10.97;66.61;92490.28;4957213;28;20304;-62
2022/04/09 00:34:00;;;;;;;2.63;0.50;;;;;;;10.78;68.76;92489.53;4971325;28;20193;-62
2022/04/09 00:36:46;;;;;;;2.97;0.60;;;;;;;10.67;71.10;92495.88;4955231;28;20727;-63
2022/04/09 00:39:32;;;;;;;2.43;0.67;;;;;;;10.58;73.54;92509.16;4947346;28;20256;-63
2022/04/09 00:42:18;;;;;;;1.80;0.70;;;;;;;10.49;76.87;92540.28;4969890;28;20641;-62
2022/04/09 00:45:05;;;;;;;1.10;0.60;;;;;;;10.35;80.87;92533.22;4937568;29;20305;-62
2022/04/09 00:47:54;;;;;;;2.00;0.70;;;;;;;10.23;84.00;92583.69;4975974;28;20280;-63
2022/04/09 00:50:40;;;;;;;2.20;0.60;;;;;;;10.12;86.97;92561.25;4970643;28;20201;-62
2022/04/09 00:53:26;;;;;;;3.10;0.70;;;;;;;10.01;90.98;92602.25;4956849;28;20200;-62
2022/04/09 00:56:15;;;;;;;6.90;0.50;;;;;;;9.64;100.00;92602.78;4943726;28;20237;-64
2022/04/09 00:59:06;;;;;;;2.00;0.90;;;;;;;9.27;100.00;92602.53;4953127;28;20757;-62
2022/04/09 01:01:53;;;;;;;0.57;0.50;;;;;;;9.00;100.00;92590.53;4966136;28;20682;-62
2022/04/09 01:04:45;;;;;;;0.40;0.40;;;;;;;8.89;100.00;92609.63;4942403;28;21038;-62
2022/04/09 01:07:32;;;;;;;0.63;0.40;;;;;;;8.95;100.00;92606.91;4962600;28;20312;-62
2022/04/09 01:10:18;;;;;;;0.57;0.30;;;;;;;8.86;100.00;92609.94;4952833;28;20197;-62
2022/04/09 01:13:05;;;;;;;1.97;0.60;;;;;;;8.84;100.00;92636.91;4953102;28;20235;-62
2022/04/09 01:15:51;;;;;;;0.73;0.60;;;;;;;8.88;100.00;92646.28;4956567;28;20328;-62
2022/04/09 01:18:37;;;;;;;4.57;0.93;;;;;;;8.85;100.00;92644.56;4952083;28;20224;-62
2022/04/09 01:21:28;;;;;;;1.90;0.50;;;;;;;8.98;100.00;92647.47;4943251;28;20775;-62
2022/04/09 01:24:18;;;;;;;2.10;0.70;;;;;;;9.10;100.00;92669.94;4956356;28;20751;-62
2022/04/09 01:27:10;;;;;;;0.57;0.30;;;;;;;7.97;100.00;92688.94;4954542;28;20251;-62
2022/04/09 01:29:58;;;;;;;0.40;0.30;;;;;;;7.29;100.00;92738.19;4954543;28;20224;-62
2022/04/09 01:32:45;;;;;;;0.43;0.20;;;;;;;6.39;100.00;92790.94;4966214;28;20237;-62
2022/04/09 01:35:31;;;;;;;0.20;0.20;;;;;;;5.73;100.00;92785.66;4943627;28;20201;-62
2022/04/09 01:38:17;;;;;;;0.40;0.20;;;;;;;5.34;100.00;92784.47;4954007;28;20212;-62
2022/04/09 01:41:04;;;;;;;1.97;0.20;;;;;;;5.36;100.00;92817.22;4945869;28;20201;-62
2022/04/09 01:43:56;;;;;;;0.57;0.30;;;;;;;5.17;100.00;92810.59;4949256;28;20197;-62
2022/04/09 01:46:44;;;;;;;0.30;0.30;;;;;;;5.06;100.00;92826.69;4941186;28;20643;-62
2022/04/09 01:49:31;;;;;;;0.20;0.20;;;;;;;4.86;100.00;92833.56;4936722;28;20371;-62
2022/04/09 01:52:16;;;;;;;0.20;0.20;;;;;;;4.80;100.00;92843.53;4950118;28;20688;-62
2022/04/09 01:55:03;;;;;;;0.33;0.20;;;;;;;4.75;100.00;92860.41;4935899;29;20304;-62
2022/04/09 01:57:50;;;;;;;0.30;0.30;;;;;;;4.70;100.00;92873.88;4948693;28;20204;-62
2022/04/09 02:00:37;;;;;;;2.53;0.80;;;;;;;4.55;100.00;92892.03;4936238;28;20679;-62
2022/04/09 02:03:23;;;;;;;0.20;0.20;;;;;;;4.50;100.00;92890.00;4941404;28;20204;-62
2022/04/09 02:06:11;;;;;;;0.87;0.30;;;;;;;4.40;100.00;92905.56;4950591;28;20211;-62
2022/04/09 02:08:57;;;;;;;0.50;0.20;;;;;;;4.40;100.00;92916.38;4948641;28;20236;-62
2022/04/09 02:11:43;;;;;;;0.20;0.20;;;;;;;4.14;100.00;92934.31;4948687;28;20324;-62
2022/04/09 02:14:29;;;;;;;0.20;0.20;;;;;;;3.81;100.00;92959.94;4943723;28;20224;-62
2022/04/09 02:17:15;;;;;;;1.17;0.30;;;;;;;3.35;100.00;92989.16;4935886;29;20225;-62
2022/04/09 02:20:03;;;;;;;0.60;0.30;;;;;;;3.02;100.00;92983.75;4948108;28;20690;-63
2022/04/09 02:22:49;;;;;;;0.20;0.20;;;;;;;2.29;100.00;93015.50;4957814;28;20205;-63
2022/04/09 02:25:35;;;;;;;0.30;0.30;;;;;;;1.63;100.00;92992.16;4942155;28;20196;-63
2022/04/09 02:28:21;;;;;;;0.20;0.20;;;;;;;1.29;100.00;93034.69;4939474;28;20218;-63
2022/04/09 02:31:09;;;;;;;0.20;0.20;;;;;;;1.01;100.00;93050.69;4955476;28;20204;-63
2022/04/09 02:33:58;;;;;;;0.20;0.20;;;;;;;1.00;100.00;93046.50;4954020;28;20205;-65
2022/04/09 02:36:45;;;;;;;0.30;0.30;;;;;;;1.00;100.00;93075.31;4939763;28;20667;-64
2022/04/09 02:39:31;;;;;;;0.20;0.20;;;;;;;1.05;100.00;93117.75;4939408;28;20217;-64
2022/04/09 02:42:19;;;;;;;0.20;0.20;;;;;;;1.08;100.00;93131.06;4955182;28;20193;-64
2022/04/09 02:45:09;;;;;;;0.30;0.30;;;;;;;1.18;100.00;93156.81;4943160;29;20329;-64
2022/04/09 02:47:56;;;;;;;0.20;0.20;;;;;;;1.11;100.00;93175.13;4943172;28;20264;-64
2022/04/09 02:50:48;;;;;;;0.30;0.30;;;;;;;1.11;100.00;93207.38;4949594;28;20299;-64
2022/04/09 02:53:35;;;;;;;0.27;0.27;;;;;;;1.05;100.00;93226.00;4955975;28;20203;-64
2022/04/09 02:56:21;;;;;;;0.20;0.20;;;;;;;1.08;100.00;93253.94;4950246;28;20725;-64
2022/04/09 02:59:08;;;;;;;0.20;0.20;;;;;;;1.01;100.00;93270.31;4967165;28;20220;-64
2022/04/09 03:01:54;;;;;;;0.20;0.20;;;;;;;1.06;100.00;93270.50;4936607;29;20212;-65
2022/04/09 03:04:41;;;;;;;0.30;0.30;;;;;;;0.93;100.00;93258.31;4950292;28;20247;-65
2022/04/09 03:07:28;;;;;;;0.30;0.30;;;;;;;0.98;100.00;93287.31;4970873;28;20208;-65
2022/04/09 03:10:14;;;;;;;0.40;0.40;;;;;;;1.05;100.00;93298.56;4938041;28;20201;-64
2022/04/09 03:13:00;;;;;;;0.40;0.40;;;;;;;1.03;100.00;93302.88;4963985;28;20376;-64
2022/04/09 03:15:46;;;;;;;0.20;0.20;;;;;;;1.03;100.00;93298.25;4945078;29;20202;-65
2022/04/09 03:18:35;;;;;;;0.30;0.30;;;;;;;1.01;100.00;93316.00;4930675;28;20373;-64
2022/04/09 03:21:21;;;;;;;0.40;0.40;;;;;;;0.96;100.00;93335.34;4956496;28;20204;-65
2022/04/09 03:24:07;;;;;;;0.40;0.40;;;;;;;0.96;100.00;93359.53;4946894;28;20222;-64
2022/04/09 03:26:54;;;;;;;0.40;0.40;;;;;;;1.01;100.00;93386.63;4946089;28;20305;-64
2022/04/09 03:29:43;;;;;;;0.60;0.60;;;;;;;1.00;100.00;93408.56;4951155;28;20220;-65
2022/04/09 03:32:29;;;;;;;0.60;0.60;;;;;;;1.10;100.00;93423.59;4959370;28;20698;-65
2022/04/09 03:35:15;;;;;;;0.50;0.50;;;;;;;1.10;100.00;93428.97;4950933;28;20337;-65
2022/04/09 03:38:03;;;;;;;0.60;0.60;;;;;;;1.03;100.00;93442.63;4952970;28;20217;-63
2022/04/09 03:41:03;;;;;;;0.70;0.70;;;;;;;1.20;100.00;93473.59;4955479;28;20205;-63
2022/04/09 03:44:05;;;;;;;0.80;0.80;;;;;;;1.16;100.00;93468.31;4939927;29;20197;-61
2022/04/09 03:47:06;;;;;;;0.80;0.80;;;;;;;1.18;100.00;93470.56;4952450;28;20201;-61
2022/04/09 03:49:55;;;;;;;0.70;0.70;;;;;;;1.08;100.00;93477.78;4957522;28;20594;-61
2022/04/09 03:52:41;;;;;;;0.70;0.70;;;;;;;1.26;100.00;93487.97;4958352;28;20217;-65
2022/04/09 03:55:29;;;;;;;0.83;0.83;;;;;;;1.13;100.00;93498.75;4957100;28;20526;-65
2022/04/09 03:58:17;;;;;;;1.47;1.17;;;;;;;1.18;100.00;93505.53;4965178;28;20226;-65
2022/04/09 04:01:03;;;;;;;2.10;1.00;;;;;;;1.23;100.00;93515.75;4946779;28;20198;-65
2022/04/09 04:03:49;;;;;;;1.30;1.20;;;;;;;1.07;100.00;93559.59;4946319;28;20197;-65
2022/04/09 04:06:35;;;;;;;1.60;1.50;;;;;;;1.18;100.00;93538.53;4950662;28;20193;-65
2022/04/09 04:09:24;;;;;;;1.30;1.20;;;;;;;1.12;100.00;93559.06;4954126;28;20296;-65
2022/04/09 04:12:14;;;;;;;2.43;1.17;;;;;;;1.11;100.00;93557.56;4945084;28;20265;-65
2022/04/09 04:15:00;;;;;;;1.50;1.40;;;;;;;1.05;100.00;93566.59;4945273;28;20192;-65
2022/04/09 04:17:49;;;;;;;1.27;1.17;;;;;;;1.06;100.00;93578.84;4948267;28;20318;-65
2022/04/09 04:20:39;;;;;;;1.00;1.00;;;;;;;1.09;100.00;93588.75;4956571;28;20522;-65
2022/04/09 04:23:26;;;;;;;1.40;1.30;;;;;;;1.01;100.00;93588.22;4925675;29;20712;-65
2022/04/09 04:26:17;;;;;;;1.57;1.47;;;;;;;1.00;100.00;93594.00;4959414;28;20200;-65
2022/04/09 04:29:03;;;;;;;1.60;1.50;;;;;;;1.00;100.00;93594.00;4960098;28;20275;-65
2022/04/09 04:31:51;;;;;;;1.47;1.37;;;;;;;0.97;100.00;93594.84;4939175;28;20252;-65
2022/04/09 04:34:37;;;;;;;2.00;1.80;;;;;;;0.97;100.00;93597.53;4953661;28;20709;-65
2022/04/09 04:37:24;;;;;;;1.63;1.53;;;;;;;0.99;100.00;93608.63;4952705;28;20190;-65
2022/04/09 04:40:17;;;;;;;1.80;1.60;;;;;;;1.07;100.00;93628.72;4951066;28;20216;-65
2022/04/09 04:43:09;;;;;;;1.93;1.80;;;;;;;1.11;100.00;93632.09;4954957;28;20197;-65
2022/04/09 04:45:55;;;;;;;1.70;1.60;;;;;;;1.06;100.00;93637.97;4950590;28;20205;-65
2022/04/09 04:48:41;;;;;;;1.97;1.80;;;;;;;1.07;100.00;93637.56;4948193;28;20643;-65
2022/04/09 04:51:29;;;;;;;1.80;1.70;;;;;;;1.11;100.00;93654.34;4956090;28;20220;-65
2022/04/09 04:54:15;;;;;;;2.13;1.93;;;;;;;1.12;100.00;93673.94;4957197;28;20309;-65
2022/04/09 04:57:03;;;;;;;1.90;1.80;;;;;;;1.34;100.00;93701.69;4956744;28;20229;-65
2022/04/09 04:59:49;;;;;;;2.20;2.00;;;;;;;1.39;100.00;93703.88;4951314;28;20328;-65
2022/04/09 05:02:36;;;;;;;1.70;1.60;;;;;;;1.39;100.00;93703.13;4945006;28;20194;-65
2022/04/09 05:05:22;;;;;;;1.87;1.77;;;;;;;1.30;100.00;93717.19;4951916;28;20197;-66
2022/04/09 05:08:09;;;;;;;2.80;2.10;;;;;;;1.29;100.00;93720.31;4947408;28;20296;-65
2022/04/09 05:10:55;;;;;;;2.43;2.10;;;;;;;1.43;100.00;93733.34;4946149;28;20200;-66
2022/04/09 05:13:44;;;;;;;3.17;2.13;;;;;;;1.31;100.00;93742.16;4934631;28;20228;-65
2022/04/09 05:16:32;;;;;;;2.20;2.03;;;;;;;1.30;100.00;93743.31;4956400;28;20200;-65
2022/04/09 05:19:24;;;;;;;2.40;2.20;;;;;;;1.25;100.00;93760.75;4942206;28;20279;-65
2022/04/09 05:22:18;;;;;;;2.80;2.60;;;;;;;1.40;100.00;93763.78;4945149;29;20194;-65
2022/04/09 05:25:17;;;;;;;3.03;2.83;;;;;;;1.32;100.00;93774.00;4944820;28;20300;-65
2022/04/09 05:28:05;;;;;;;3.27;2.97;;;;;;;1.34;100.00;93787.75;4941532;28;20263;-66
2022/04/09 05:30:56;;;;;;;3.33;2.60;;;;;;;1.36;100.00;93793.47;4952929;29;20202;-65
2022/04/09 05:33:42;;;;;;;3.17;2.83;;;;;;;1.38;100.00;93806.50;4938221;29;20659;-65
2022/04/09 05:36:28;;;;;;;3.40;3.10;;;;;;;1.35;100.00;93813.50;4938438;28;20362;-65
2022/04/09 05:39:17;;;;;;;3.77;3.20;;;;;;;1.55;100.00;93816.78;4951414;28;20221;-65
2022/04/09 05:42:04;;;;;;;3.73;3.43;;;;;;;1.52;100.00;93824.94;4950943;28;20220;-65
2022/04/09 05:44:54;;;;;;;3.30;3.00;;;;;;;1.40;100.00;93821.03;4932093;29;20663;-66
2022/04/09 05:47:43;;;;;;;4.40;3.87;;;;;;;1.30;100.00;93824.00;4939073;28;20655;-65
2022/04/09 05:50:32;;;;;;;3.83;3.40;;;;;;;1.33;100.00;93823.91;4949894;28;20271;-65
2022/04/09 05:53:18;;;;;;;3.40;3.00;;;;;;;1.32;100.00;93829.72;4939513;28;20283;-65
2022/04/09 05:56:07;;;;;;;3.50;3.20;;;;;;;1.28;100.00;93843.25;4944568;28;20204;-65
2022/04/09 05:58:59;;;;;;;4.00;3.60;;;;;;;1.40;100.00;93849.88;4949595;28;20313;-65
2022/04/09 06:01:45;;;;;;;3.90;3.60;;;;;;;1.41;100.00;93851.38;4938243;28;20685;-65
2022/04/09 06:04:33;;;;;;;4.50;2.93;;;;;;;1.36;100.00;93866.09;4953350;28;20353;-65
2022/04/09 06:07:20;;;;;;;3.87;3.57;;;;;;;1.33;100.00;93880.38;4952861;28;20348;-65
2022/04/09 06:10:20;;;;;;;4.40;4.00;;;;;;;1.48;100.00;93880.81;4952085;28;20189;-65
2022/04/09 06:13:06;;;;;;;3.37;3.07;;;;;;;1.51;100.00;93882.63;4955375;28;20228;-64
2022/04/09 06:15:53;;;;;;;4.10;3.70;;;;;;;1.46;100.00;93902.72;4947489;28;20197;-64
2022/04/09 06:18:43;;;;;;;4.00;3.60;;;;;;;1.60;100.00;93901.59;4948128;28;20249;-65
2022/04/09 06:21:29;;;;;;;2.70;2.50;;;;;;;1.13;100.00;93944.28;4969137;28;20340;-65
2022/04/09 06:24:16;;;;;;;3.93;3.63;;;;;;;1.23;100.00;93914.44;4955676;28;20301;-65
2022/04/09 06:27:03;;;;;;;3.73;3.23;;;;;;;1.30;100.00;93921.59;4953358;28;20671;-64
2022/04/09 06:29:54;;;;;;;4.33;3.37;;;;;;;1.31;100.00;93908.91;4944049;28;20240;-64
2022/04/09 06:32:40;;;;;;;3.63;3.33;;;;;;;1.35;100.00;93923.00;4955372;28;20223;-65
2022/04/09 06:35:29;;;;;;;3.20;3.00;;;;;;;1.29;100.00;93919.31;4952457;28;20233;-65
2022/04/09 06:38:15;;;;;;;4.07;3.70;;;;;;;1.45;100.00;93921.97;4952991;28;20287;-64
2022/04/09 06:41:02;;;;;;;4.53;3.90;;;;;;;1.43;100.00;93919.72;4954119;28;20273;-65
2022/04/09 06:43:55;;;;;;;3.67;3.33;;;;;;;1.47;100.00;93920.38;4939136;28;20198;-65
2022/04/09 06:46:52;;;;;;;3.93;3.63;;;;;;;1.71;100.00;93940.53;4940735;28;20261;-64
2022/04/09 06:49:58;;;;;;;4.73;3.80;;;;;;;2.00;100.00;93930.50;4961219;28;20225;-64
2022/04/09 06:52:47;;;;;;;6.27;3.90;;;;;;;2.09;100.00;93932.59;4945169;28;20256;-65
2022/04/09 06:55:41;;;;;;;4.00;3.63;;;;;;;2.14;100.00;93934.75;4938213;28;20692;-64
2022/04/09 06:58:28;;;;;;;7.10;4.10;;;;;;;2.34;100.00;93928.00;4947785;28;20299;-62
2022/04/09 07:01:14;;;;;;;8.63;4.33;;;;;;;2.89;100.00;93947.59;4942611;29;20389;-62
2022/04/09 07:04:03;;;;;;;4.60;4.07;;;;;;;3.13;100.00;93946.84;4944057;28;20219;-62
2022/04/09 07:06:49;;;;;;;4.37;3.57;;;;;;;2.77;100.00;93948.34;4964535;28;20292;-62
2022/04/09 07:09:35;;;;;;;4.90;3.47;;;;;;;2.69;100.00;93949.75;4960333;28;20244;-62
2022/04/09 07:12:22;;;;;;;3.70;3.23;;;;;;;2.34;100.00;93960.34;4962619;28;20326;-62
2022/04/09 07:15:09;;;;;;;4.53;3.43;;;;;;;1.98;100.00;93962.50;4961200;28;20212;-62
2022/04/09 07:17:55;;;;;;;4.00;3.70;;;;;;;1.82;100.00;93967.91;4953747;28;20193;-63
2022/04/09 07:20:42;;;;;;;4.33;3.93;;;;;;;1.86;100.00;93973.97;4951466;28;20194;-62
2022/04/09 07:23:28;;;;;;;3.53;3.23;;;;;;;1.95;100.00;93976.78;4959421;28;20660;-62
2022/04/09 07:26:18;;;;;;;3.33;3.03;;;;;;;1.76;100.00;93983.06;4953563;28;20754;-62
2022/04/09 07:29:04;;;;;;;4.13;3.73;;;;;;;1.99;100.00;93979.41;4949971;28;20690;-62
2022/04/09 07:31:49;;;;;;;4.87;3.77;;;;;;;1.77;100.00;93986.50;4963709;28;20586;-62
2022/04/09 07:34:35;;;;;;;4.40;4.00;;;;;;;1.82;100.00;93994.06;4968342;28;20701;-62
2022/04/09 07:37:21;;;;;;;4.60;4.20;;;;;;;1.68;100.00;93999.81;4949649;28;20644;-62
2022/04/09 07:40:09;;;;;;;4.87;4.07;;;;;;;1.64;100.00;94005.28;4964234;28;20645;-62
2022/04/09 07:43:00;;;;;;;4.77;4.37;;;;;;;1.69;100.00;94010.16;4962833;28;20194;-62
2022/04/09 07:45:46;;;;;;;6.70;4.57;;;;;;;1.68;100.00;94016.69;4949453;28;20198;-62
2022/04/09 07:48:33;;;;;;;9.37;5.37;;;;;;;1.77;100.00;94032.25;4936260;28;20296;-62
2022/04/09 07:51:19;;;;;;;6.27;4.73;;;;;;;1.84;100.00;94022.09;4958289;28;20570;-62
2022/04/09 07:54:05;;;;;;;5.70;4.80;;;;;;;1.94;100.00;94018.38;4972578;28;20196;-62
2022/04/09 07:56:52;;;;;;;9.30;5.30;;;;;;;2.07;100.00;94011.09;4951799;28;20200;-62
2022/04/09 07:59:38;;;;;;;6.70;6.00;;;;;;;2.37;100.00;94013.41;4960332;28;20703;-62
2022/04/09 08:02:25;;;;;;;6.53;5.83;;;;;;;2.28;100.00;94010.56;4940831;28;20609;-62
2022/04/09 08:05:11;;;;;;;6.47;5.87;;;;;;;2.39;100.00;94021.03;4939878;28;20276;-62
2022/04/09 08:07:57;;;;;;;8.80;5.87;;;;;;;2.67;100.00;94017.56;4957455;28;20185;-62
2022/04/09 08:10:43;;;;;;;6.97;6.20;;;;;;;2.99;100.00;94022.03;4962110;28;20239;-62
2022/04/09 08:13:29;;;;;;;11.10;6.23;;;;;;;2.76;100.00;94033.88;4953816;28;20248;-59
2022/04/09 08:16:15;;;;;;;8.10;6.07;;;;;;;2.87;100.00;94030.88;4966737;28;20675;-59
2022/04/09 08:19:03;;;;;;;7.70;6.53;;;;;;;3.11;100.00;94024.75;4972373;28;20220;-59
2022/04/09 08:21:49;;;;;;;7.60;6.80;;;;;;;3.89;100.00;94035.81;4969202;28;20557;-59
2022/04/09 08:24:34;;;;;;;7.13;5.90;;;;;;;3.27;100.00;94029.28;4960794;28;20428;-59
2022/04/09 08:27:21;;;;;;;6.97;6.20;;;;;;;2.83;100.00;94027.53;4969938;28;20545;-59
2022/04/09 08:30:08;;;;;;;7.23;6.40;;;;;;;2.80;100.00;94031.81;4954726;28;20339;-59
2022/04/09 08:32:54;;;;;;;6.83;6.10;;;;;;;2.95;100.00;94041.03;4952662;28;20213;-59
2022/04/09 08:35:41;;;;;;;6.53;5.90;;;;;;;3.25;100.00;94039.75;4968197;28;20280;-59
2022/04/09 08:38:27;;;;;;;10.70;6.83;;;;;;;3.18;100.00;94046.13;4957093;28;20216;-59
2022/04/09 08:41:14;;;;;;;7.33;5.17;;;;;;;3.09;100.00;94039.88;4971330;28;20204;-59
2022/04/09 08:44:00;;;;;;;7.43;5.80;;;;;;;3.61;100.00;94042.91;4938993;29;20205;-59
2022/04/09 08:46:47;;;;;;;7.43;5.43;;;;;;;4.39;100.00;94043.81;4965194;28;20247;-59
2022/04/09 08:49:39;;;;;;;8.73;6.03;;;;;;;4.75;100.00;94052.22;4947623;28;20221;-59
2022/04/09 08:52:25;;;;;;;6.03;4.53;;;;;;;4.65;100.00;94054.06;4952437;28;20225;-59
2022/04/09 08:55:13;;;;;;;7.93;5.10;;;;;;;4.35;100.00;94068.25;4948018;28;21737;-59
2022/04/09 08:57:59;;;;;;;6.87;5.77;;;;;;;5.55;100.00;94053.13;4969220;28;20204;-60
2022/04/09 09:00:46;;;;;;;4.77;4.33;;;;;;;5.00;100.00;94070.25;4963339;28;20208;-60
2022/04/09 09:03:35;;;;;;;6.33;4.57;;;;;;;4.40;100.00;94061.53;4965407;28;20212;-59
2022/04/09 09:06:31;;;;;;;4.67;4.13;;;;;;;5.16;100.00;94064.66;4967264;28;20228;-59
2022/04/09 09:09:27;;;;;;;4.33;3.87;;;;;;;5.25;99.03;94070.09;4968551;28;20224;-59
2022/04/09 09:12:31;;;;;;;4.73;4.23;;;;;;;5.35;100.00;94066.22;4948245;28;20233;-59
2022/04/09 09:15:17;;;;;;;5.07;3.87;;;;;;;4.96;100.00;94064.97;4949016;28;20661;-59
2022/04/09 09:18:05;;;;;;;4.83;4.33;;;;;;;5.17;100.00;94061.50;4966144;28;20287;-63
2022/04/09 09:20:53;;;;;;;6.47;3.80;;;;;;;5.89;96.75;94061.06;4969302;28;20228;-63
2022/04/09 09:23:39;;;;;;;7.87;3.73;;;;;;;5.69;94.10;94074.97;4958758;28;20272;-63
2022/04/09 09:26:25;;;;;;;5.00;3.83;;;;;;;6.18;98.33;94079.69;4959809;28;20344;-63
2022/04/09 09:29:23;;;;;;;4.93;3.73;;;;;;;5.46;98.51;94086.31;4955775;28;20542;-63
2022/04/09 09:32:09;;;;;;;4.80;3.63;;;;;;;4.88;96.98;94080.69;4966024;28;20217;-63
2022/04/09 09:34:56;;;;;;;4.77;4.30;;;;;;;4.84;100.00;94079.31;4962823;28;20193;-63
2022/04/09 09:37:43;;;;;;;4.80;4.40;;;;;;;4.45;100.00;94099.56;4963035;28;20204;-63
2022/04/09 09:40:32;;;;;;;6.00;5.07;;;;;;;4.48;100.00;94092.56;4951520;28;20197;-63
2022/04/09 09:43:20;;;;;;;6.17;4.60;;;;;;;5.37;100.00;94090.91;4956101;28;20216;-63
2022/04/09 09:46:06;;;;;;;7.33;5.37;;;;;;;6.42;96.61;94111.22;4969515;28;20207;-63
2022/04/09 09:48:52;;;;;;;7.83;5.03;;;;;;;6.28;93.50;94098.22;4972260;28;20213;-63
2022/04/09 09:51:38;;;;;;;5.97;4.57;;;;;;;6.01;100.00;94106.28;4963767;28;20726;-63
2022/04/09 09:54:24;;;;;;;4.47;3.40;;;;;;;5.46;97.72;94094.44;4963561;28;20678;-63
2022/04/09 09:57:19;;;;;;;7.27;4.40;;;;;;;6.26;98.30;94102.59;4951500;28;20203;-63
2022/04/09 10:00:10;;;;;;;4.53;4.20;;;;;;;7.24;92.93;94095.69;4947274;28;20226;-63
2022/04/09 10:02:58;;;;;;;4.70;4.13;;;;;;;7.62;88.99;94087.75;4951685;28;20726;-63
2022/04/09 10:05:48;;;;;;;5.40;3.40;;;;;;;8.00;80.33;94093.38;4943837;28;20197;-63
2022/04/09 10:08:33;;;;;;;8.83;4.17;;;;;;;6.52;81.09;94093.75;4946005;28;20304;-63
2022/04/09 10:11:21;;;;;;;5.97;4.03;;;;;;;6.45;82.33;94090.59;4950221;28;20628;-63
2022/04/09 10:14:08;;;;;;;10.90;4.10;;;;;;;6.19;85.17;94095.50;4955652;28;20205;-63
2022/04/09 10:16:55;;;;;;;5.07;3.50;;;;;;;5.93;81.36;94102.34;4950193;29;20539;-63
2022/04/09 10:19:42;;;;;;;4.30;3.30;;;;;;;5.42;84.23;94106.59;4955522;28;20208;-63
2022/04/09 10:22:32;;;;;;;5.57;3.53;;;;;;;5.20;86.37;94108.56;4969591;28;20201;-62
2022/04/09 10:25:19;;;;;;;5.10;3.30;;;;;;;5.06;87.08;94106.38;4967129;28;20344;-63
2022/04/09 10:28:06;;;;;;;3.50;3.00;;;;;;;5.00;82.61;94108.13;4959092;28;20658;-62
2022/04/09 10:30:52;;;;;;;5.17;2.80;;;;;;;4.88;83.34;94117.81;4968221;28;20193;-62
2022/04/09 10:33:38;;;;;;;4.37;2.93;;;;;;;5.03;81.76;94118.81;4962048;28;20220;-62
2022/04/09 10:36:42;;;;;;;2.57;2.33;;;;;;;5.11;74.96;94114.66;4955656;28;20196;-62
2022/04/09 10:39:29;;;;;;;4.97;2.80;;;;;;;6.42;76.91;94111.22;4959443;28;20304;-62
2022/04/09 10:42:47;;;;;;;6.87;2.80;;;;;;;7.13;75.38;94104.31;4959842;28;20687;-63
2022/04/09 10:46:02;;;;;;;4.63;3.10;;;;;;;7.56;74.21;94102.41;4968774;28;20193;-63
2022/04/09 10:48:48;;;;;;;3.10;2.57;;;;;;;7.38;68.71;94101.25;4964050;28;20749;-62
2022/04/09 10:51:57;;;;;;;4.03;2.13;;;;;;;7.14;65.92;94110.50;4968900;28;20271;-63
2022/04/09 10:55:11;;;;;;;3.73;2.60;;;;;;;7.16;70.98;94106.09;4952183;28;20220;-63
2022/04/09 10:58:01;;;;;;;4.07;2.97;;;;;;;6.46;70.84;94100.97;4963801;28;20280;-62
2022/04/09 11:00:47;;;;;;;4.50;2.67;;;;;;;6.66;69.45;94109.44;4948958;28;20244;-62
2022/04/09 11:03:33;;;;;;;4.63;3.23;;;;;;;6.29;71.47;94107.88;4963858;28;20253;-62
2022/04/09 11:06:43;;;;;;;3.10;2.77;;;;;;;5.43;73.52;94114.25;4958858;28;20296;-62
2022/04/09 11:09:45;;;;;;;4.30;2.60;;;;;;;4.99;72.60;94120.88;4967384;28;20356;-62
2022/04/09 11:12:43;;;;;;;3.23;2.60;;;;;;;5.65;76.81;94127.78;4940928;28;20242;-62
2022/04/09 11:15:29;;;;;;;4.37;2.53;;;;;;;5.75;77.53;94123.91;4969748;28;20189;-62
2022/04/09 11:18:15;;;;;;;4.00;3.13;;;;;;;5.66;79.58;94123.88;4967182;28;20225;-62
2022/04/09 11:21:11;;;;;;;3.67;3.20;;;;;;;5.58;80.28;94128.03;4964726;28;20709;-62
2022/04/09 11:24:08;;;;;;;5.10;3.60;;;;;;;6.04;80.68;94130.53;4949264;28;20260;-63
2022/04/09 11:26:55;;;;;;;4.13;3.23;;;;;;;5.90;76.80;94139.22;4952427;28;20209;-62
2022/04/09 11:29:42;;;;;;;5.40;2.40;;;;;;;5.97;72.27;94138.19;4948153;28;20233;-62
2022/04/09 11:32:28;;;;;;;3.33;1.97;;;;;;;5.99;68.31;94124.94;4958492;28;20332;-62
2022/04/09 11:35:17;;;;;;;2.90;2.17;;;;;;;6.51;73.17;94116.66;4943666;28;20201;-62
2022/04/09 11:38:09;;;;;;;7.27;2.60;;;;;;;6.39;71.44;94122.97;4964350;28;20193;-62
2022/04/09 11:40:56;;;;;;;2.90;2.33;;;;;;;6.64;68.84;94097.50;4942577;28;20253;-62
2022/04/09 11:43:46;;;;;;;4.30;3.13;;;;;;;6.79;69.39;94120.13;4970713;28;20192;-62
2022/04/09 11:46:44;;;;;;;6.50;2.50;;;;;;;6.68;70.81;94120.59;4973436;28;20193;-62
2022/04/09 11:49:33;;;;;;;5.87;2.57;;;;;;;7.25;68.42;94125.13;4971457;28;20209;-62
2022/04/09 11:52:27;;;;;;;2.60;1.93;;;;;;;6.76;70.00;94121.03;4956898;28;21102;-62
2022/04/09 11:55:14;;;;;;;2.90;2.10;;;;;;;6.41;72.63;94139.53;4962752;28;20279;-62
2022/04/09 11:58:00;;;;;;;4.97;2.03;;;;;;;5.06;76.28;94152.38;4967212;28;20228;-62
2022/04/09 12:00:47;;;;;;;3.90;2.27;;;;;;;4.40;80.30;94156.91;4967313;28;20288;-61
2022/04/09 12:03:33;;;;;;;4.00;2.03;;;;;;;4.14;81.32;94152.69;4951841;28;20654;-62
2022/04/09 12:06:18;;;;;;;4.10;1.97;;;;;;;4.18;86.44;94153.34;4955333;28;20202;-62
2022/04/09 12:09:04;;;;;;;4.03;2.33;;;;;;;4.65;86.44;94150.66;4965986;28;20228;-62
2022/04/09 12:11:53;;;;;;;3.70;2.00;;;;;;;5.14;81.65;94154.41;4955501;28;20228;-62
2022/04/09 12:14:51;;;;;;;3.37;1.73;;;;;;;5.55;75.54;94137.81;4971715;28;20205;-62
2022/04/09 12:17:37;;;;;;;3.00;1.80;;;;;;;5.75;76.94;94129.34;4956126;28;20623;-62
2022/04/09 12:20:33;;;;;;;3.47;1.47;;;;;;;5.97;69.33;94149.78;4970403;28;20197;-62
2022/04/09 12:23:33;;;;;;;4.23;1.53;;;;;;;6.02;67.92;94124.78;4968818;28;20288;-62
2022/04/09 12:26:23;;;;;;;3.80;1.60;;;;;;;6.53;71.00;94129.75;4962216;28;20581;-62
2022/04/09 12:29:19;;;;;;;4.87;1.60;;;;;;;6.09;66.67;94137.34;4957667;28;20228;-62
2022/04/09 12:32:23;;;;;;;2.07;1.00;;;;;;;5.15;66.69;94145.06;4957124;28;20218;-62
2022/04/09 12:35:11;;;;;;;1.40;0.70;;;;;;;4.79;64.99;94144.78;4966466;28;20196;-62
2022/04/09 12:37:58;;;;;;;2.17;1.00;;;;;;;4.91;62.62;94146.69;4964176;28;20635;-62
2022/04/09 12:40:44;;;;;;;2.60;1.00;;;;;;;5.63;61.50;94151.84;4966473;28;20208;-62
2022/04/09 12:43:42;;;;;;;1.60;1.10;;;;;;;6.59;63.60;94141.53;4955917;28;20205;-62
2022/04/09 12:46:27;;;;;;;3.60;1.60;;;;;;;7.22;65.86;94147.00;4958877;28;20309;-62
2022/04/09 12:49:13;;;;;;;2.67;1.20;;;;;;;6.29;66.65;94158.63;4945873;28;20233;-62
2022/04/09 12:52:04;;;;;;;2.90;1.40;;;;;;;6.19;62.62;94138.88;4969583;28;20231;-62
2022/04/09 12:54:50;;;;;;;1.93;1.20;;;;;;;5.91;67.49;94145.38;4944437;29;20190;-62
2022/04/09 12:57:35;;;;;;;6.20;1.47;;;;;;;5.87;67.50;94145.50;4942695;28;20201;-63
2022/04/09 13:00:23;;;;;;;3.43;0.90;;;;;;;5.04;61.64;94157.47;4967972;28;20322;-62
2022/04/09 13:03:09;;;;;;;2.50;0.93;;;;;;;4.70;63.76;94169.06;4956114;28;20197;-62
2022/04/09 13:05:55;;;;;;;3.83;0.93;;;;;;;4.59;63.68;94160.53;4967396;28;20196;-62
2022/04/09 13:08:41;;;;;;;6.07;1.67;;;;;;;5.53;61.65;94161.13;4959369;28;20221;-62
2022/04/09 13:11:27;;;;;;;3.03;0.93;;;;;;;6.08;58.75;94160.22;4960368;28;20609;-62
2022/04/09 13:14:13;;;;;;;3.40;1.17;;;;;;;6.70;58.75;94145.31;4970010;28;20276;-62
2022/04/09 13:16:59;;;;;;;3.43;0.97;;;;;;;6.62;56.11;94146.06;4920489;28;1155499;-61